createdAt,value
2018-10-06T00:00:16.770Z,42.70
2018-10-06T00:02:46.813Z,42.70
2018-10-06T00:05:17.117Z,42.60
2018-10-06T00:07:47.252Z,42.50
2018-10-06T00:10:17.331Z,42.50
2018-10-06T00:12:47.438Z,42.30
2018-10-06T00:15:17.591Z,42.30
2018-10-06T00:17:47.662Z,42.20
2018-10-06T00:20:17.773Z,42.20
2018-10-06T00:22:48.095Z,42.20
2018-10-06T00:25:18.290Z,42.80
2018-10-06T00:27:48.495Z,42.10
2018-10-06T00:30:18.583Z,42.10
2018-10-06T00:32:48.691Z,42.00
2018-10-06T00:35:18.805Z,42.00
2018-10-06T00:37:48.953Z,41.90
2018-10-06T00:40:19.218Z,41.90
2018-10-06T00:42:49.337Z,41.80
2018-10-06T00:45:19.589Z,41.70
2018-10-06T00:47:49.662Z,41.80
2018-10-06T00:50:19.790Z,41.70
2018-10-06T00:52:50.041Z,41.70
2018-10-06T00:55:20.225Z,41.70
2018-10-06T00:57:50.467Z,41.70
2018-10-06T01:00:20.592Z,41.70
2018-10-06T01:02:50.873Z,41.60
2018-10-06T01:05:21.249Z,41.50
2018-10-06T01:07:51.527Z,41.40
2018-10-06T01:10:21.693Z,41.40
2018-10-06T01:12:51.788Z,41.40
2018-10-06T01:15:21.925Z,41.40
2018-10-06T01:17:52.077Z,41.40
2018-10-06T01:20:22.185Z,41.40
2018-10-06T01:22:52.488Z,41.40
2018-10-06T01:25:22.599Z,41.30
2018-10-06T01:27:52.690Z,41.20
2018-10-06T01:30:22.813Z,41.30
2018-10-06T01:32:52.897Z,41.30
2018-10-06T01:35:23.041Z,41.30
2018-10-06T01:37:53.237Z,41.30
2018-10-06T01:40:23.504Z,41.30
2018-10-06T01:42:53.560Z,41.30
2018-10-06T01:45:23.683Z,41.30
2018-10-06T01:47:53.923Z,41.30
2018-10-06T01:50:24.038Z,41.20
2018-10-06T01:52:54.082Z,41.20
2018-10-06T01:55:24.200Z,41.20
2018-10-06T01:57:54.248Z,41.20
2018-10-06T02:00:24.342Z,41.20
2018-10-06T02:02:54.490Z,41.20
2018-10-06T02:05:24.745Z,41.20
2018-10-06T02:07:54.846Z,41.20
2018-10-06T02:10:24.950Z,41.10
2018-10-06T02:12:55.324Z,41.10
2018-10-06T02:15:25.404Z,41.10
2018-10-06T02:17:55.478Z,41.10
2018-10-06T02:20:25.590Z,41.10
2018-10-06T02:22:55.676Z,41.10
2018-10-06T02:25:26.080Z,41.10
2018-10-06T02:27:56.128Z,41.20
2018-10-06T02:30:26.285Z,41.20
2018-10-06T02:32:56.357Z,41.10
2018-10-06T02:35:26.522Z,41.10
2018-10-06T02:37:56.567Z,41.10
2018-10-06T02:40:26.618Z,41.00
2018-10-06T02:42:56.812Z,41.00
2018-10-06T02:45:26.770Z,41.00
2018-10-06T02:47:56.990Z,41.00
2018-10-06T02:50:27.104Z,41.00
2018-10-06T02:52:57.259Z,40.90
2018-10-06T02:55:27.365Z,41.00
2018-10-06T02:57:57.417Z,41.00
2018-10-06T03:00:27.446Z,41.00
2018-10-06T03:02:57.627Z,41.00
2018-10-06T03:05:27.678Z,41.40
2018-10-06T03:07:57.771Z,41.00
2018-10-06T03:10:27.867Z,41.00
2018-10-06T03:12:57.991Z,41.00
2018-10-06T03:15:28.052Z,41.00
2018-10-06T03:17:58.189Z,41.00
2018-10-06T03:20:28.225Z,41.00
2018-10-06T03:22:58.366Z,41.00
2018-10-06T03:25:28.459Z,41.70
2018-10-06T03:27:58.651Z,41.10
2018-10-06T03:30:28.853Z,41.10
2018-10-06T03:32:59.009Z,41.10
2018-10-06T03:35:29.179Z,41.10
2018-10-06T03:37:59.349Z,41.10
2018-10-06T03:40:29.442Z,41.10
2018-10-06T03:42:59.792Z,41.20
2018-10-06T03:45:29.935Z,41.20
2018-10-06T03:48:00.019Z,41.20
2018-10-06T03:50:30.043Z,41.20
2018-10-06T03:53:00.175Z,41.20
2018-10-06T03:55:30.245Z,41.20
2018-10-06T03:58:00.379Z,41.20
2018-10-06T04:00:30.481Z,41.20
2018-10-06T04:03:00.505Z,41.20
2018-10-06T04:05:30.628Z,41.20
2018-10-06T04:08:00.678Z,41.20
2018-10-06T04:10:30.688Z,41.20
2018-10-06T04:13:00.714Z,41.20
2018-10-06T04:15:30.821Z,41.20
2018-10-06T04:18:00.851Z,41.30
2018-10-06T04:20:30.856Z,41.20
2018-10-06T04:23:00.846Z,41.30
2018-10-06T04:25:30.858Z,41.30
2018-10-06T04:28:00.809Z,41.30
2018-10-06T04:30:30.754Z,41.30
2018-10-06T04:33:00.733Z,41.30
2018-10-06T04:35:30.745Z,41.30
2018-10-06T04:38:00.691Z,41.30
2018-10-06T04:40:30.822Z,41.40
2018-10-06T04:43:00.954Z,41.40
2018-10-06T04:45:31.005Z,41.40
2018-10-06T04:48:01.249Z,41.30
2018-10-06T04:50:31.437Z,41.30
2018-10-06T04:53:01.536Z,41.30
2018-10-06T04:55:31.596Z,41.30
2018-10-06T04:58:01.677Z,41.30
2018-10-06T05:00:31.811Z,41.30
2018-10-06T05:03:02.058Z,41.30
2018-10-06T05:05:32.152Z,41.30
2018-10-06T05:08:02.349Z,41.30
2018-10-06T05:10:32.524Z,41.30
2018-10-06T05:13:02.630Z,41.30
2018-10-06T05:15:32.736Z,41.30
2018-10-06T05:18:02.746Z,41.00
2018-10-06T05:20:32.822Z,40.90
2018-10-06T05:23:02.875Z,41.00
2018-10-06T05:25:32.968Z,41.00
2018-10-06T05:28:03.130Z,41.00
2018-10-06T05:30:33.445Z,40.90
2018-10-06T05:33:03.709Z,40.80
2018-10-06T05:35:33.810Z,40.70
2018-10-06T05:38:03.853Z,40.70
2018-10-06T05:40:33.969Z,40.70
2018-10-06T05:43:04.028Z,40.70
2018-10-06T05:45:34.101Z,40.60
2018-10-06T05:48:04.132Z,40.60
2018-10-06T05:50:34.299Z,41.20
2018-10-06T05:53:04.522Z,40.60
2018-10-06T05:55:34.773Z,40.60
2018-10-06T05:58:04.846Z,40.60
2018-10-06T06:00:34.913Z,40.60
2018-10-06T06:03:05.030Z,40.60
2018-10-06T06:05:35.120Z,41.60
2018-10-06T06:08:05.188Z,40.70
2018-10-06T06:10:35.264Z,40.90
2018-10-06T06:13:05.466Z,41.00
2018-10-06T06:15:35.607Z,41.20
2018-10-06T06:18:05.750Z,41.50
2018-10-06T06:20:35.824Z,41.80
2018-10-06T06:23:05.923Z,42.00
2018-10-06T06:25:35.951Z,42.20
2018-10-06T06:28:06.190Z,42.30
2018-10-06T06:30:36.282Z,42.60
2018-10-06T06:33:06.559Z,42.70
2018-10-06T06:35:36.665Z,42.90
2018-10-06T06:38:06.679Z,42.90
2018-10-06T06:40:36.895Z,43.10
2018-10-06T06:43:06.950Z,43.10
2018-10-06T06:45:37.150Z,43.20
2018-10-06T06:48:07.277Z,43.30
2018-10-06T06:50:37.346Z,43.40
2018-10-06T06:53:07.481Z,44.10
2018-10-06T06:55:37.582Z,43.60
2018-10-06T06:58:07.751Z,43.60
2018-10-06T07:00:37.786Z,43.70
2018-10-06T07:03:07.842Z,43.80
2018-10-06T07:05:37.883Z,44.00
2018-10-06T07:08:07.935Z,43.90
2018-10-06T07:10:37.986Z,43.90
2018-10-06T07:13:08.065Z,44.20
2018-10-06T07:15:38.256Z,44.50
2018-10-06T07:18:08.398Z,44.80
2018-10-06T07:20:38.515Z,45.10
2018-10-06T07:23:08.642Z,45.30
2018-10-06T07:25:38.841Z,45.60
2018-10-06T07:28:08.954Z,45.90
2018-10-06T07:30:39.081Z,46.00
2018-10-06T07:33:09.217Z,46.30
2018-10-06T07:35:39.425Z,46.40
2018-10-06T07:38:09.643Z,47.20
2018-10-06T07:40:39.677Z,46.70
2018-10-06T07:43:09.806Z,46.70
2018-10-06T07:45:40.014Z,46.90
2018-10-06T07:48:10.059Z,47.00
2018-10-06T07:50:40.130Z,47.20
2018-10-06T07:53:10.180Z,47.30
2018-10-06T07:55:40.290Z,47.60
2018-10-06T07:58:10.399Z,47.90
2018-10-06T08:00:40.509Z,48.00
2018-10-06T08:03:10.594Z,48.20
2018-10-06T08:05:40.740Z,48.20
2018-10-06T08:08:10.833Z,48.30
2018-10-06T08:10:40.902Z,48.40
2018-10-06T08:13:10.976Z,48.80
2018-10-06T08:15:41.057Z,48.80
2018-10-06T08:18:11.119Z,48.90
2018-10-06T08:20:41.175Z,49.30
2018-10-06T08:23:11.178Z,49.60
2018-10-06T08:25:41.183Z,49.50
2018-10-06T08:28:11.281Z,49.50
2018-10-06T08:30:44.379Z,49.50
2018-10-06T08:33:14.440Z,49.50
2018-10-06T08:35:44.449Z,49.60
2018-10-06T08:38:14.481Z,49.70
2018-10-06T08:40:44.465Z,49.70
2018-10-06T08:43:14.550Z,49.80
2018-10-06T08:45:44.595Z,49.90
2018-10-06T08:48:14.635Z,50.30
2018-10-06T08:50:44.659Z,50.30
2018-10-06T08:53:14.689Z,50.40
2018-10-06T08:55:44.891Z,50.50
2018-10-06T08:58:14.996Z,50.30
2018-10-06T09:00:45.204Z,50.10
2018-10-06T09:03:15.278Z,50.00
2018-10-06T09:05:45.302Z,49.90
2018-10-06T09:08:15.404Z,49.90
2018-10-06T09:10:45.536Z,49.70
2018-10-06T09:13:15.688Z,49.50
2018-10-06T09:15:45.773Z,49.30
2018-10-06T09:18:16.252Z,49.20
2018-10-06T09:20:46.292Z,49.30
2018-10-06T09:23:16.484Z,49.40
2018-10-06T09:25:46.597Z,49.90
2018-10-06T09:28:16.834Z,49.30
2018-10-06T09:30:46.925Z,49.20
2018-10-06T09:33:16.976Z,49.10
2018-10-06T09:35:47.097Z,49.00
2018-10-06T09:38:17.456Z,49.10
2018-10-06T09:40:47.557Z,49.00
2018-10-06T09:43:17.667Z,49.00
2018-10-06T09:45:47.941Z,49.10
2018-10-06T09:48:18.354Z,49.20
2018-10-06T09:50:48.387Z,49.20
2018-10-06T09:53:18.485Z,49.10
2018-10-06T09:55:48.604Z,49.00
2018-10-06T09:58:18.712Z,48.90
2018-10-06T10:00:54.227Z,49.30
2018-10-06T10:03:29.878Z,49.00
2018-10-06T10:06:00.035Z,49.90
2018-10-06T10:08:30.256Z,49.30
2018-10-06T10:11:00.505Z,50.00
2018-10-06T10:13:30.621Z,49.90
2018-10-06T10:16:00.721Z,50.00
2018-10-06T10:18:30.917Z,50.00
2018-10-06T10:21:00.850Z,49.80
2018-10-06T10:23:30.967Z,49.60
2018-10-06T10:26:00.977Z,50.20
2018-10-06T10:28:31.088Z,49.40
2018-10-06T10:31:01.058Z,49.30
2018-10-06T10:33:31.105Z,49.20
2018-10-06T10:36:01.277Z,49.20
2018-10-06T10:38:31.347Z,49.10
2018-10-06T10:41:01.450Z,49.20
2018-10-06T10:43:31.524Z,48.90
2018-10-06T10:46:01.575Z,48.90
2018-10-06T10:48:31.762Z,48.90
2018-10-06T10:51:01.850Z,48.80
2018-10-06T10:53:31.969Z,48.70
2018-10-06T10:56:02.031Z,48.70
2018-10-06T10:58:32.103Z,48.70
2018-10-06T11:01:02.141Z,48.60
2018-10-06T11:03:32.266Z,48.60
2018-10-06T11:06:02.711Z,48.50
2018-10-06T11:08:39.376Z,48.50
2018-10-06T11:11:09.483Z,48.50
2018-10-06T11:13:39.767Z,48.40
2018-10-06T11:16:09.831Z,48.40
2018-10-06T11:18:40.033Z,48.40
2018-10-06T11:21:10.151Z,48.30
2018-10-06T11:23:40.250Z,49.00
2018-10-06T11:26:10.474Z,48.30
2018-10-06T11:28:40.589Z,48.20
2018-10-06T11:31:10.701Z,48.20
2018-10-06T11:33:40.779Z,48.20
2018-10-06T11:36:10.920Z,48.20
2018-10-06T11:38:40.989Z,48.20
2018-10-06T11:41:11.104Z,48.20
2018-10-06T11:43:41.329Z,48.10
2018-10-06T11:46:11.520Z,48.00
2018-10-06T11:48:41.687Z,48.10
2018-10-06T11:51:11.809Z,48.00
2018-10-06T11:53:41.851Z,48.00
2018-10-06T11:56:11.971Z,48.20
2018-10-06T11:58:42.053Z,48.10
2018-10-06T12:01:12.119Z,48.10
2018-10-06T12:03:42.280Z,48.00
2018-10-06T12:06:12.451Z,48.00
2018-10-06T12:08:42.679Z,47.90
2018-10-06T12:11:12.770Z,48.00
2018-10-06T12:13:42.988Z,47.90
2018-10-06T12:16:13.080Z,47.90
2018-10-06T12:18:43.167Z,47.90
2018-10-06T12:21:13.348Z,47.90
2018-10-06T12:23:43.715Z,47.80
2018-10-06T12:26:13.970Z,47.80
2018-10-06T12:28:43.865Z,47.80
2018-10-06T12:31:13.992Z,47.80
2018-10-06T12:33:44.070Z,47.80
2018-10-06T12:36:14.322Z,47.80
2018-10-06T12:38:44.414Z,47.70
2018-10-06T12:41:14.569Z,47.70
2018-10-06T12:43:47.799Z,48.00
2018-10-06T12:46:18.098Z,47.60
2018-10-06T12:48:48.091Z,47.60
2018-10-06T12:51:18.296Z,47.60
2018-10-06T12:53:48.343Z,47.70
2018-10-06T12:56:19.225Z,47.70
2018-10-06T12:58:49.257Z,47.70
2018-10-06T13:01:19.240Z,47.70
2018-10-06T13:03:49.261Z,47.70
2018-10-06T13:06:19.305Z,47.70
2018-10-06T13:08:49.542Z,47.80
2018-10-06T13:11:19.532Z,47.80
2018-10-06T13:13:49.509Z,47.90
2018-10-06T13:16:19.521Z,47.90
2018-10-06T13:18:49.542Z,47.90
2018-10-06T13:21:19.522Z,47.90
2018-10-06T13:23:49.565Z,47.80
2018-10-06T13:26:19.675Z,47.90
2018-10-06T13:28:49.636Z,47.90
2018-10-06T13:31:19.639Z,47.90
2018-10-06T13:33:49.644Z,47.90
2018-10-06T13:36:19.599Z,48.00
2018-10-06T13:38:49.663Z,48.10
2018-10-06T13:41:19.699Z,48.20
2018-10-06T13:43:49.752Z,48.10
2018-10-06T13:46:19.970Z,48.10
2018-10-06T13:48:49.960Z,48.40
2018-10-06T13:51:20.071Z,47.90
2018-10-06T13:53:50.137Z,47.90
2018-10-06T13:56:20.235Z,47.80
2018-10-06T13:58:50.368Z,47.80
2018-10-06T14:01:20.573Z,48.20
2018-10-06T14:03:50.712Z,47.70
2018-10-06T14:06:20.771Z,47.70
2018-10-06T14:08:51.024Z,47.60
2018-10-06T14:11:21.084Z,47.60
2018-10-06T14:13:51.168Z,47.60
2018-10-06T14:16:21.265Z,47.60
2018-10-06T14:18:51.381Z,47.70
2018-10-06T14:21:21.497Z,47.60
2018-10-06T14:23:51.615Z,47.70
2018-10-06T14:26:21.734Z,47.70
2018-10-06T14:28:51.961Z,47.60
2018-10-06T14:31:22.141Z,47.50
2018-10-06T14:33:52.207Z,47.50
2018-10-06T14:36:22.409Z,47.40
2018-10-06T14:38:52.462Z,47.40
2018-10-06T14:41:22.876Z,47.30
2018-10-06T14:43:52.952Z,47.30
2018-10-06T14:46:23.061Z,47.20
2018-10-06T14:48:53.330Z,47.10
2018-10-06T14:51:23.362Z,47.80
2018-10-06T14:53:53.410Z,47.00
2018-10-06T14:56:23.472Z,47.00
2018-10-06T14:58:53.610Z,46.90
2018-10-06T15:01:23.752Z,46.80
2018-10-06T15:03:53.788Z,46.80
2018-10-06T15:06:23.866Z,46.60
2018-10-06T15:08:53.955Z,46.60
2018-10-06T15:11:23.976Z,45.90
2018-10-06T15:13:54.029Z,46.50
2018-10-06T15:16:24.284Z,46.40
2018-10-06T15:18:54.343Z,46.30
2018-10-06T15:21:24.453Z,46.30
2018-10-06T15:23:54.580Z,46.30
2018-10-06T15:26:24.883Z,46.30
2018-10-06T15:28:54.909Z,46.30
2018-10-06T15:31:25.013Z,46.30
2018-10-06T15:33:55.040Z,46.20
2018-10-06T15:36:25.296Z,46.30
2018-10-06T15:38:55.282Z,46.20
2018-10-06T15:41:25.466Z,46.20
2018-10-06T15:43:55.551Z,46.20
2018-10-06T15:46:25.808Z,46.30
2018-10-06T15:48:55.905Z,46.30
2018-10-06T15:51:26.178Z,46.30
2018-10-06T15:53:56.185Z,46.30
2018-10-06T15:56:26.232Z,46.30
2018-10-06T15:58:56.302Z,46.30
2018-10-06T16:01:26.683Z,46.30
2018-10-06T16:03:56.720Z,46.30
2018-10-06T16:06:26.773Z,46.40
2018-10-06T16:08:56.942Z,46.40
2018-10-06T16:11:27.009Z,46.50
2018-10-06T16:13:57.073Z,46.60
2018-10-06T16:16:27.126Z,46.60
2018-10-06T16:18:57.519Z,46.60
2018-10-06T16:21:27.647Z,46.60
2018-10-06T16:23:57.671Z,46.60
2018-10-06T16:26:27.783Z,46.80
2018-10-06T16:28:57.968Z,46.80
2018-10-06T16:31:28.072Z,46.70
2018-10-06T16:33:58.169Z,46.60
2018-10-06T16:36:28.294Z,46.70
2018-10-06T16:38:58.443Z,46.70
2018-10-06T16:41:28.456Z,46.70
2018-10-06T16:43:58.564Z,46.70
2018-10-06T16:46:28.556Z,46.70
2018-10-06T16:48:58.712Z,46.70
2018-10-06T16:51:28.819Z,46.70
2018-10-06T16:53:58.914Z,46.80
2018-10-06T16:56:29.237Z,46.70
2018-10-06T16:58:59.404Z,46.80
2018-10-06T17:01:29.586Z,46.80
2018-10-06T17:03:59.668Z,46.80
2018-10-06T17:06:29.906Z,46.90
2018-10-06T17:08:59.965Z,47.50
2018-10-06T17:11:30.151Z,46.90
2018-10-06T17:14:00.229Z,46.90
2018-10-06T17:16:30.279Z,46.90
2018-10-06T17:19:00.369Z,47.00
2018-10-06T17:21:30.478Z,47.00
2018-10-06T17:24:00.915Z,46.90
2018-10-06T17:26:31.455Z,47.00
2018-10-06T17:29:01.597Z,46.90
2018-10-06T17:31:31.686Z,46.90
2018-10-06T17:34:01.781Z,46.90
2018-10-06T17:36:31.905Z,47.00
2018-10-06T17:39:02.136Z,46.90
2018-10-06T17:41:32.398Z,46.90
2018-10-06T17:44:02.735Z,47.00
2018-10-06T17:46:33.036Z,46.90
2018-10-06T17:49:03.138Z,46.90
2018-10-06T17:51:33.282Z,46.90
2018-10-06T17:54:03.405Z,46.90
2018-10-06T17:56:33.476Z,46.90
2018-10-06T17:59:03.690Z,46.90
2018-10-06T18:01:33.634Z,47.00
2018-10-06T18:04:03.759Z,47.10
2018-10-06T18:06:33.797Z,47.20
2018-10-06T18:09:04.717Z,47.20
2018-10-06T18:11:34.882Z,47.20
2018-10-06T18:14:04.952Z,47.20
2018-10-06T18:16:35.028Z,47.30
2018-10-06T18:19:05.210Z,47.30
2018-10-06T18:21:35.448Z,47.30
2018-10-06T18:24:05.470Z,47.30
2018-10-06T18:26:35.561Z,47.40
2018-10-06T18:29:06.253Z,47.30
2018-10-06T18:31:36.454Z,47.30
2018-10-06T18:34:06.637Z,47.30
2018-10-06T18:36:36.810Z,47.30
2018-10-06T18:39:07.580Z,47.30
2018-10-06T18:41:37.879Z,47.30
2018-10-06T18:44:08.002Z,47.30
2018-10-06T18:46:38.202Z,47.30
2018-10-06T18:49:08.350Z,47.30
2018-10-06T18:51:38.458Z,47.30
2018-10-06T18:54:08.537Z,47.20
2018-10-06T18:56:38.807Z,47.30
2018-10-06T18:59:09.051Z,47.20
2018-10-06T19:01:39.450Z,47.30
2018-10-06T19:04:09.714Z,47.20
2018-10-06T19:06:39.644Z,47.20
2018-10-06T19:09:09.701Z,47.20
2018-10-06T19:11:39.814Z,47.20
2018-10-06T19:14:09.978Z,47.20
2018-10-06T19:16:40.086Z,47.20
2018-10-06T19:19:10.229Z,47.20
2018-10-06T19:21:40.566Z,47.20
2018-10-06T19:24:10.653Z,47.80
2018-10-06T19:26:40.813Z,47.70
2018-10-06T19:29:10.865Z,47.10
2018-10-06T19:31:40.929Z,47.10
2018-10-06T19:34:10.946Z,47.10
2018-10-06T19:36:41.030Z,47.10
2018-10-06T19:39:11.175Z,47.10
2018-10-06T19:41:41.379Z,47.10
2018-10-06T19:44:11.453Z,47.10
2018-10-06T19:46:41.581Z,47.10
2018-10-06T19:49:11.693Z,47.10
2018-10-06T19:51:42.148Z,47.10
2018-10-06T19:54:12.222Z,47.10
2018-10-06T19:56:42.285Z,47.10
2018-10-06T19:59:12.545Z,46.90
2018-10-06T20:01:43.965Z,47.00
2018-10-06T20:04:14.204Z,47.00
2018-10-06T20:06:44.223Z,47.00
2018-10-06T20:09:14.517Z,47.00
2018-10-06T20:11:44.912Z,47.00
2018-10-06T20:14:14.972Z,47.00
2018-10-06T20:16:45.671Z,48.00
2018-10-06T20:19:15.808Z,47.80
2018-10-06T20:21:48.320Z,47.70
2018-10-06T20:24:20.031Z,47.50
2018-10-06T20:26:50.561Z,47.50
2018-10-06T20:29:20.579Z,47.30
2018-10-06T20:31:52.059Z,47.20
2018-10-06T20:34:22.187Z,47.10
2018-10-06T20:36:52.347Z,47.00
2018-10-06T20:39:22.538Z,46.90
2018-10-06T20:41:52.781Z,46.90
2018-10-06T20:44:22.846Z,46.80
2018-10-06T20:46:52.813Z,47.40
2018-10-06T20:49:22.884Z,46.70
2018-10-06T20:51:53.000Z,46.70
2018-10-06T20:54:23.122Z,47.20
2018-10-06T20:56:53.070Z,46.00
2018-10-06T20:59:23.130Z,46.50
2018-10-06T21:01:53.161Z,46.40
2018-10-06T21:04:23.130Z,46.40
2018-10-06T21:06:53.187Z,46.30
2018-10-06T21:09:23.251Z,46.30
2018-10-06T21:11:53.396Z,46.30
2018-10-06T21:14:23.716Z,46.20
2018-10-06T21:16:53.829Z,46.20
2018-10-06T21:19:23.894Z,46.20
2018-10-06T21:21:54.055Z,46.20
2018-10-06T21:24:24.149Z,46.20
2018-10-06T21:26:54.327Z,46.20
2018-10-06T21:29:24.382Z,46.10
2018-10-06T21:31:54.710Z,46.10
2018-10-06T21:34:24.734Z,46.00
2018-10-06T21:36:54.813Z,45.90
2018-10-06T21:39:24.862Z,45.90
2018-10-06T21:41:54.919Z,45.90
2018-10-06T21:44:25.073Z,45.90
2018-10-06T21:46:55.279Z,45.90
2018-10-06T21:49:25.517Z,46.00
2018-10-06T21:51:55.610Z,46.20
2018-10-06T21:54:26.293Z,46.20
2018-10-06T21:56:56.362Z,46.30
2018-10-06T21:59:26.415Z,46.30
2018-10-06T22:01:56.847Z,46.60
2018-10-06T22:04:27.047Z,46.40
2018-10-06T22:06:57.114Z,46.40
2018-10-06T22:09:27.348Z,46.40
2018-10-06T22:11:57.399Z,46.40
2018-10-06T22:14:27.481Z,46.40
2018-10-06T22:16:57.606Z,46.40
2018-10-06T22:19:27.714Z,46.40
2018-10-06T22:21:57.921Z,46.30
2018-10-06T22:24:28.130Z,46.30
2018-10-06T22:26:58.229Z,46.30
2018-10-06T22:29:28.348Z,46.30
2018-10-06T22:31:58.411Z,47.00
2018-10-06T22:34:28.420Z,46.30
2018-10-06T22:36:58.470Z,46.20
2018-10-06T22:39:28.579Z,46.20
2018-10-06T22:41:58.648Z,46.20
2018-10-06T22:44:28.633Z,46.30
2018-10-06T22:46:58.877Z,46.30
2018-10-06T22:49:28.883Z,46.20
2018-10-06T22:51:58.881Z,46.30
2018-10-06T22:54:28.899Z,46.20
2018-10-06T22:56:58.993Z,46.20
2018-10-06T22:59:29.031Z,46.20
2018-10-06T23:01:59.105Z,46.20
2018-10-06T23:04:29.190Z,46.10
2018-10-06T23:06:59.192Z,46.10
2018-10-06T23:09:29.322Z,46.10
2018-10-06T23:11:59.416Z,46.10
2018-10-06T23:14:29.515Z,46.10
2018-10-06T23:16:59.566Z,46.10
2018-10-06T23:19:29.607Z,46.10
2018-10-06T23:21:59.622Z,46.70
2018-10-06T23:24:29.654Z,46.10
2018-10-06T23:26:59.733Z,46.10
2018-10-06T23:29:29.718Z,45.70
2018-10-06T23:31:59.723Z,46.00
2018-10-06T23:34:29.871Z,46.10
2018-10-06T23:36:59.838Z,46.10
2018-10-06T23:39:29.964Z,46.00
2018-10-06T23:41:59.975Z,46.00
2018-10-06T23:44:30.072Z,46.00
2018-10-06T23:47:00.251Z,46.10
2018-10-06T23:49:30.243Z,46.10
2018-10-06T23:52:00.222Z,46.10
2018-10-06T23:54:30.206Z,46.10
2018-10-06T23:57:00.188Z,46.00
2018-10-06T23:59:30.113Z,46.10
